sensor_id;sensor_type;location;lat;lon;timestamp;P1;durP1;ratioP1;P2;durP2;ratioP2
33453;SDS011;39400;49.744;7.012;2022-07-23T00:01:27;7.43;;;5.45;;
33453;SDS011;39400;49.744;7.012;2022-07-23T00:03:56;7.65;;;6.65;;
33453;SDS011;39400;49.744;7.012;2022-07-23T00:06:26;10.50;;;7.25;;
33453;SDS011;39400;49.744;7.012;2022-07-23T00:08:54;8.23;;;6.65;;
33453;SDS011;39400;49.744;7.012;2022-07-23T00:11:24;8.95;;;7.03;;
33453;SDS011;39400;49.744;7.012;2022-07-23T00:13:52;10.80;;;6.70;;
33453;SDS011;39400;49.744;7.012;2022-07-23T00:16:21;11.25;;;7.18;;
33453;SDS011;39400;49.744;7.012;2022-07-23T00:18:49;11.43;;;8.43;;
33453;SDS011;39400;49.744;7.012;2022-07-23T00:21:16;10.57;;;7.45;;
33453;SDS011;39400;49.744;7.012;2022-07-23T00:23:44;7.55;;;6.18;;
33453;SDS011;39400;49.744;7.012;2022-07-23T00:26:11;10.65;;;6.90;;
33453;SDS011;39400;49.744;7.012;2022-07-23T00:28:39;8.75;;;6.68;;
33453;SDS011;39400;49.744;7.012;2022-07-23T00:31:06;8.45;;;6.78;;
33453;SDS011;39400;49.744;7.012;2022-07-23T00:33:36;9.25;;;6.45;;
33453;SDS011;39400;49.744;7.012;2022-07-23T00:36:03;8.27;;;6.93;;
33453;SDS011;39400;49.744;7.012;2022-07-23T00:38:31;9.93;;;7.63;;
33453;SDS011;39400;49.744;7.012;2022-07-23T00:41:01;11.70;;;6.85;;
33453;SDS011;39400;49.744;7.012;2022-07-23T00:43:28;8.10;;;6.10;;
33453;SDS011;39400;49.744;7.012;2022-07-23T00:45:55;8.13;;;6.68;;
33453;SDS011;39400;49.744;7.012;2022-07-23T00:48:26;8.90;;;7.50;;
33453;SDS011;39400;49.744;7.012;2022-07-23T00:50:53;9.38;;;7.68;;
33453;SDS011;39400;49.744;7.012;2022-07-23T00:53:20;12.05;;;6.97;;
33453;SDS011;39400;49.744;7.012;2022-07-23T00:55:48;9.02;;;7.20;;
33453;SDS011;39400;49.744;7.012;2022-07-23T00:58:16;9.68;;;7.43;;
33453;SDS011;39400;49.744;7.012;2022-07-23T01:00:44;12.45;;;7.30;;
33453;SDS011;39400;49.744;7.012;2022-07-23T01:03:11;9.50;;;7.65;;
33453;SDS011;39400;49.744;7.012;2022-07-23T01:05:39;11.95;;;7.93;;
33453;SDS011;39400;49.744;7.012;2022-07-23T01:08:06;11.52;;;8.07;;
33453;SDS011;39400;49.744;7.012;2022-07-23T01:10:34;15.23;;;8.95;;
33453;SDS011;39400;49.744;7.012;2022-07-23T01:13:05;14.45;;;8.60;;
33453;SDS011;39400;49.744;7.012;2022-07-23T01:15:38;11.07;;;7.97;;
33453;SDS011;39400;49.744;7.012;2022-07-23T01:18:08;12.80;;;7.28;;
33453;SDS011;39400;49.744;7.012;2022-07-23T01:20:37;10.45;;;7.93;;
33453;SDS011;39400;49.744;7.012;2022-07-23T01:23:06;12.50;;;9.63;;
33453;SDS011;39400;49.744;7.012;2022-07-23T01:25:34;12.80;;;8.30;;
33453;SDS011;39400;49.744;7.012;2022-07-23T01:28:03;16.52;;;9.48;;
33453;SDS011;39400;49.744;7.012;2022-07-23T01:30:31;9.48;;;7.80;;
33453;SDS011;39400;49.744;7.012;2022-07-23T01:33:00;13.38;;;8.38;;
33453;SDS011;39400;49.744;7.012;2022-07-23T01:35:31;14.60;;;8.45;;
33453;SDS011;39400;49.744;7.012;2022-07-23T01:38:03;11.52;;;8.18;;
33453;SDS011;39400;49.744;7.012;2022-07-23T01:40:30;8.73;;;7.20;;
33453;SDS011;39400;49.744;7.012;2022-07-23T01:42:58;11.00;;;8.40;;
33453;SDS011;39400;49.744;7.012;2022-07-23T01:45:27;11.20;;;8.65;;
33453;SDS011;39400;49.744;7.012;2022-07-23T01:47:55;9.27;;;8.13;;
33453;SDS011;39400;49.744;7.012;2022-07-23T01:50:23;9.07;;;7.18;;
33453;SDS011;39400;49.744;7.012;2022-07-23T01:53:10;9.70;;;6.80;;
33453;SDS011;39400;49.744;7.012;2022-07-23T01:55:38;11.77;;;9.13;;
33453;SDS011;39400;49.744;7.012;2022-07-23T01:58:06;10.80;;;7.78;;
33453;SDS011;39400;49.744;7.012;2022-07-23T02:00:33;10.45;;;7.25;;
33453;SDS011;39400;49.744;7.012;2022-07-23T02:03:01;10.65;;;7.97;;
33453;SDS011;39400;49.744;7.012;2022-07-23T02:05:29;9.95;;;7.15;;
33453;SDS011;39400;49.744;7.012;2022-07-23T02:10:26;10.35;;;8.05;;
33453;SDS011;39400;49.744;7.012;2022-07-23T02:12:54;8.40;;;7.15;;
33453;SDS011;39400;49.744;7.012;2022-07-23T02:15:21;9.57;;;6.57;;
33453;SDS011;39400;49.744;7.012;2022-07-23T02:17:49;11.60;;;7.85;;
33453;SDS011;39400;49.744;7.012;2022-07-23T02:20:16;13.82;;;8.02;;
33453;SDS011;39400;49.744;7.012;2022-07-23T02:22:44;10.35;;;8.38;;
33453;SDS011;39400;49.744;7.012;2022-07-23T02:25:11;12.40;;;7.68;;
33453;SDS011;39400;49.744;7.012;2022-07-23T02:27:39;12.20;;;7.53;;
33453;SDS011;39400;49.744;7.012;2022-07-23T02:30:06;10.10;;;7.95;;
33453;SDS011;39400;49.744;7.012;2022-07-23T02:32:34;10.02;;;8.60;;
33453;SDS011;39400;49.744;7.012;2022-07-23T02:35:03;11.98;;;7.32;;
33453;SDS011;39400;49.744;7.012;2022-07-23T02:37:31;12.10;;;8.50;;
33453;SDS011;39400;49.744;7.012;2022-07-23T02:39:59;12.02;;;9.07;;
33453;SDS011;39400;49.744;7.012;2022-07-23T02:42:28;15.97;;;9.20;;
33453;SDS011;39400;49.744;7.012;2022-07-23T02:44:55;9.90;;;7.55;;
33453;SDS011;39400;49.744;7.012;2022-07-23T02:47:22;12.57;;;9.05;;
33453;SDS011;39400;49.744;7.012;2022-07-23T02:49:50;12.48;;;9.48;;
33453;SDS011;39400;49.744;7.012;2022-07-23T02:52:18;10.93;;;7.55;;
33453;SDS011;39400;49.744;7.012;2022-07-23T02:54:47;13.40;;;9.13;;
33453;SDS011;39400;49.744;7.012;2022-07-23T02:57:16;14.55;;;11.13;;
33453;SDS011;39400;49.744;7.012;2022-07-23T02:59:43;18.83;;;11.45;;
33453;SDS011;39400;49.744;7.012;2022-07-23T03:02:10;12.90;;;8.82;;
33453;SDS011;39400;49.744;7.012;2022-07-23T03:04:38;11.35;;;9.25;;
33453;SDS011;39400;49.744;7.012;2022-07-23T03:07:05;17.38;;;12.75;;
33453;SDS011;39400;49.744;7.012;2022-07-23T03:09:33;14.05;;;8.70;;
33453;SDS011;39400;49.744;7.012;2022-07-23T03:12:00;14.43;;;8.07;;
33453;SDS011;39400;49.744;7.012;2022-07-23T03:14:28;12.73;;;8.75;;
33453;SDS011;39400;49.744;7.012;2022-07-23T03:16:56;8.68;;;6.82;;
33453;SDS011;39400;49.744;7.012;2022-07-23T03:19:23;13.02;;;8.27;;
33453;SDS011;39400;49.744;7.012;2022-07-23T03:21:51;10.90;;;9.13;;
33453;SDS011;39400;49.744;7.012;2022-07-23T03:24:18;11.27;;;9.18;;
33453;SDS011;39400;49.744;7.012;2022-07-23T03:26:46;9.80;;;8.07;;
33453;SDS011;39400;49.744;7.012;2022-07-23T03:29:13;12.13;;;8.32;;
33453;SDS011;39400;49.744;7.012;2022-07-23T03:31:42;13.43;;;9.05;;
33453;SDS011;39400;49.744;7.012;2022-07-23T03:34:09;11.05;;;8.82;;
33453;SDS011;39400;49.744;7.012;2022-07-23T03:36:37;12.27;;;8.50;;
33453;SDS011;39400;49.744;7.012;2022-07-23T03:39:05;13.05;;;9.70;;
33453;SDS011;39400;49.744;7.012;2022-07-23T03:41:38;14.88;;;11.30;;
33453;SDS011;39400;49.744;7.012;2022-07-23T03:44:06;14.95;;;10.75;;
33453;SDS011;39400;49.744;7.012;2022-07-23T03:46:33;11.90;;;10.25;;
33453;SDS011;39400;49.744;7.012;2022-07-23T03:49:01;11.23;;;9.13;;
33453;SDS011;39400;49.744;7.012;2022-07-23T03:51:29;11.20;;;8.70;;
33453;SDS011;39400;49.744;7.012;2022-07-23T03:53:56;11.43;;;10.23;;
33453;SDS011;39400;49.744;7.012;2022-07-23T03:56:24;10.93;;;8.77;;
33453;SDS011;39400;49.744;7.012;2022-07-23T03:58:51;17.40;;;11.75;;
33453;SDS011;39400;49.744;7.012;2022-07-23T04:01:19;16.08;;;12.30;;
33453;SDS011;39400;49.744;7.012;2022-07-23T04:03:46;18.17;;;11.90;;
33453;SDS011;39400;49.744;7.012;2022-07-23T04:06:14;15.85;;;10.85;;
33453;SDS011;39400;49.744;7.012;2022-07-23T04:08:41;13.45;;;10.30;;
33453;SDS011;39400;49.744;7.012;2022-07-23T04:11:09;15.90;;;11.25;;
33453;SDS011;39400;49.744;7.012;2022-07-23T04:13:36;14.73;;;10.38;;
33453;SDS011;39400;49.744;7.012;2022-07-23T04:16:04;13.80;;;10.93;;
33453;SDS011;39400;49.744;7.012;2022-07-23T04:18:32;14.68;;;11.73;;
33453;SDS011;39400;49.744;7.012;2022-07-23T04:21:06;13.98;;;10.90;;
33453;SDS011;39400;49.744;7.012;2022-07-23T04:23:35;15.88;;;11.35;;
33453;SDS011;39400;49.744;7.012;2022-07-23T04:26:05;18.33;;;12.98;;
33453;SDS011;39400;49.744;7.012;2022-07-23T04:28:33;18.50;;;13.82;;
33453;SDS011;39400;49.744;7.012;2022-07-23T04:31:01;15.52;;;11.77;;
33453;SDS011;39400;49.744;7.012;2022-07-23T04:33:30;19.30;;;13.38;;
33453;SDS011;39400;49.744;7.012;2022-07-23T04:36:00;15.82;;;12.13;;
33453;SDS011;39400;49.744;7.012;2022-07-23T04:38:28;18.17;;;12.40;;
33453;SDS011;39400;49.744;7.012;2022-07-23T04:41:00;19.52;;;13.35;;
33453;SDS011;39400;49.744;7.012;2022-07-23T04:43:27;19.92;;;13.40;;
33453;SDS011;39400;49.744;7.012;2022-07-23T04:45:55;22.67;;;14.27;;
33453;SDS011;39400;49.744;7.012;2022-07-23T04:48:22;17.15;;;12.88;;
33453;SDS011;39400;49.744;7.012;2022-07-23T04:50:58;19.00;;;13.98;;
33453;SDS011;39400;49.744;7.012;2022-07-23T04:53:28;17.73;;;12.85;;
33453;SDS011;39400;49.744;7.012;2022-07-23T04:56:02;20.58;;;12.63;;
33453;SDS011;39400;49.744;7.012;2022-07-23T04:58:31;18.73;;;13.75;;
33453;SDS011;39400;49.744;7.012;2022-07-23T05:00:58;18.17;;;13.30;;
33453;SDS011;39400;49.744;7.012;2022-07-23T05:03:27;20.05;;;13.15;;
33453;SDS011;39400;49.744;7.012;2022-07-23T05:05:55;26.17;;;14.90;;
33453;SDS011;39400;49.744;7.012;2022-07-23T05:08:22;18.17;;;13.75;;
33453;SDS011;39400;49.744;7.012;2022-07-23T05:10:53;20.42;;;13.57;;
33453;SDS011;39400;49.744;7.012;2022-07-23T05:13:23;17.98;;;13.40;;
33453;SDS011;39400;49.744;7.012;2022-07-23T05:15:52;18.15;;;12.18;;
33453;SDS011;39400;49.744;7.012;2022-07-23T05:18:20;21.60;;;12.02;;
33453;SDS011;39400;49.744;7.012;2022-07-23T05:20:48;17.77;;;13.20;;
33453;SDS011;39400;49.744;7.012;2022-07-23T05:23:20;17.27;;;13.60;;
33453;SDS011;39400;49.744;7.012;2022-07-23T05:25:48;20.03;;;12.63;;
33453;SDS011;39400;49.744;7.012;2022-07-23T05:28:17;20.35;;;13.10;;
33453;SDS011;39400;49.744;7.012;2022-07-23T05:34:01;16.65;;;11.60;;
33453;SDS011;39400;49.744;7.012;2022-07-23T05:36:28;18.48;;;12.93;;
33453;SDS011;39400;49.744;7.012;2022-07-23T05:41:46;17.13;;;13.20;;
33453;SDS011;39400;49.744;7.012;2022-07-23T05:44:13;19.13;;;12.05;;
33453;SDS011;39400;49.744;7.012;2022-07-23T05:46:43;17.90;;;12.10;;
33453;SDS011;39400;49.744;7.012;2022-07-23T05:49:18;20.55;;;13.50;;
33453;SDS011;39400;49.744;7.012;2022-07-23T06:07:20;17.55;;;11.13;;
33453;SDS011;39400;49.744;7.012;2022-07-23T06:09:48;16.48;;;11.38;;
33453;SDS011;39400;49.744;7.012;2022-07-23T06:12:19;16.30;;;11.32;;
33453;SDS011;39400;49.744;7.012;2022-07-23T06:14:50;16.48;;;12.98;;
33453;SDS011;39400;49.744;7.012;2022-07-23T06:17:20;16.80;;;11.38;;
33453;SDS011;39400;49.744;7.012;2022-07-23T06:19:52;16.70;;;12.77;;
33453;SDS011;39400;49.744;7.012;2022-07-23T06:22:23;17.17;;;11.70;;
33453;SDS011;39400;49.744;7.012;2022-07-23T06:24:50;17.08;;;11.00;;
33453;SDS011;39400;49.744;7.012;2022-07-23T06:27:21;18.00;;;12.20;;
33453;SDS011;39400;49.744;7.012;2022-07-23T06:33:03;14.43;;;11.65;;
33453;SDS011;39400;49.744;7.012;2022-07-23T06:39:02;16.67;;;11.18;;
33453;SDS011;39400;49.744;7.012;2022-07-23T06:45:27;13.98;;;9.65;;
33453;SDS011;39400;49.744;7.012;2022-07-23T06:47:59;15.70;;;11.65;;
33453;SDS011;39400;49.744;7.012;2022-07-23T06:53:52;11.88;;;9.38;;
33453;SDS011;39400;49.744;7.012;2022-07-23T07:00:30;13.57;;;8.95;;
33453;SDS011;39400;49.744;7.012;2022-07-23T07:03:02;13.70;;;10.18;;
33453;SDS011;39400;49.744;7.012;2022-07-23T07:08:41;15.75;;;8.98;;
33453;SDS011;39400;49.744;7.012;2022-07-23T07:11:34;12.80;;;10.70;;
33453;SDS011;39400;49.744;7.012;2022-07-23T07:14:46;12.75;;;8.65;;
33453;SDS011;39400;49.744;7.012;2022-07-23T07:17:34;11.25;;;7.88;;
33453;SDS011;39400;49.744;7.012;2022-07-23T07:20:18;12.00;;;8.38;;
33453;SDS011;39400;49.744;7.012;2022-07-23T07:22:53;13.85;;;9.15;;
33453;SDS011;39400;49.744;7.012;2022-07-23T07:25:26;14.25;;;9.55;;
33453;SDS011;39400;49.744;7.012;2022-07-23T07:27:55;15.82;;;8.80;;
33453;SDS011;39400;49.744;7.012;2022-07-23T07:30:37;12.02;;;8.63;;
33453;SDS011;39400;49.744;7.012;2022-07-23T07:33:11;15.23;;;9.25;;
33453;SDS011;39400;49.744;7.012;2022-07-23T07:35:55;11.80;;;8.10;;
33453;SDS011;39400;49.744;7.012;2022-07-23T07:38:30;13.65;;;9.13;;
33453;SDS011;39400;49.744;7.012;2022-07-23T07:41:00;12.13;;;8.30;;
33453;SDS011;39400;49.744;7.012;2022-07-23T07:43:31;12.43;;;8.68;;
33453;SDS011;39400;49.744;7.012;2022-07-23T07:46:09;10.68;;;8.18;;
33453;SDS011;39400;49.744;7.012;2022-07-23T07:49:17;12.07;;;7.47;;
33453;SDS011;39400;49.744;7.012;2022-07-23T07:52:07;12.27;;;7.47;;
33453;SDS011;39400;49.744;7.012;2022-07-23T07:54:56;11.05;;;7.38;;
33453;SDS011;39400;49.744;7.012;2022-07-23T07:57:54;10.50;;;8.40;;
33453;SDS011;39400;49.744;7.012;2022-07-23T08:00:25;9.82;;;7.43;;
33453;SDS011;39400;49.744;7.012;2022-07-23T08:08:58;9.65;;;6.80;;
33453;SDS011;39400;49.744;7.012;2022-07-23T08:11:36;10.48;;;7.25;;
33453;SDS011;39400;49.744;7.012;2022-07-23T08:15:07;10.35;;;7.30;;
33453;SDS011;39400;49.744;7.012;2022-07-23T08:17:59;11.02;;;7.63;;
33453;SDS011;39400;49.744;7.012;2022-07-23T08:21:02;6.53;;;5.60;;
33453;SDS011;39400;49.744;7.012;2022-07-23T08:23:44;9.07;;;5.60;;
33453;SDS011;39400;49.744;7.012;2022-07-23T08:26:56;9.02;;;5.65;;
33453;SDS011;39400;49.744;7.012;2022-07-23T08:30:12;7.05;;;6.25;;
33453;SDS011;39400;49.744;7.012;2022-07-23T08:33:21;7.68;;;5.82;;
33453;SDS011;39400;49.744;7.012;2022-07-23T08:48:24;10.65;;;7.45;;
33453;SDS011;39400;49.744;7.012;2022-07-23T08:57:31;6.45;;;5.20;;
33453;SDS011;39400;49.744;7.012;2022-07-23T09:00:22;9.98;;;6.30;;
33453;SDS011;39400;49.744;7.012;2022-07-23T09:03:17;9.52;;;6.43;;
33453;SDS011;39400;49.744;7.012;2022-07-23T09:06:44;11.90;;;6.60;;
33453;SDS011;39400;49.744;7.012;2022-07-23T09:09:43;7.95;;;6.28;;
33453;SDS011;39400;49.744;7.012;2022-07-23T09:15:53;6.95;;;5.60;;
33453;SDS011;39400;49.744;7.012;2022-07-23T09:19:18;8.70;;;6.60;;
33453;SDS011;39400;49.744;7.012;2022-07-23T09:23:00;7.78;;;6.22;;
33453;SDS011;39400;49.744;7.012;2022-07-23T09:30:04;8.00;;;6.60;;
33453;SDS011;39400;49.744;7.012;2022-07-23T09:40:07;8.10;;;6.45;;
33453;SDS011;39400;49.744;7.012;2022-07-23T09:51:05;9.05;;;5.78;;
33453;SDS011;39400;49.744;7.012;2022-07-23T15:02:05;6.88;;;5.53;;
33453;SDS011;39400;49.744;7.012;2022-07-23T15:13:55;6.60;;;5.45;;
33453;SDS011;39400;49.744;7.012;2022-07-23T15:17:17;8.70;;;5.28;;
33453;SDS011;39400;49.744;7.012;2022-07-23T15:20:13;15.02;;;5.38;;
33453;SDS011;39400;49.744;7.012;2022-07-23T15:23:13;10.30;;;6.38;;
33453;SDS011;39400;49.744;7.012;2022-07-23T15:26:09;7.47;;;5.65;;
33453;SDS011;39400;49.744;7.012;2022-07-23T15:28:57;6.85;;;5.45;;
33453;SDS011;39400;49.744;7.012;2022-07-23T16:08:53;8.02;;;6.13;;
33453;SDS011;39400;49.744;7.012;2022-07-23T16:47:08;9.23;;;6.28;;
33453;SDS011;39400;49.744;7.012;2022-07-23T17:49:00;9.60;;;6.75;;
33453;SDS011;39400;49.744;7.012;2022-07-23T17:52:55;7.78;;;6.22;;
33453;SDS011;39400;49.744;7.012;2022-07-23T17:56:23;6.57;;;5.53;;
33453;SDS011;39400;49.744;7.012;2022-07-23T18:04:39;8.35;;;6.30;;
